Time;durP1;ratioP1;P1;durP2;ratioP2;P2;SDS_P1;SDS_P2;PMS_P1;PMS_P2;Temp;Humidity;BMP_temperature;BMP_pressure;BME280_temperature;BME280_humidity;BME280_pressure;Samples;Min_cycle;Max_cycle;Signal;HPM_P1;HPM_P2
2023/12/18 00:01:15;;;;;;;24.97;10.70;;;10.00;92.50;;;11.71;62.56;102922.03;3082697;46;20432;-67
2023/12/18 00:03:44;;;;;;;21.70;11.73;;;10.00;92.60;;;11.71;62.72;102927.28;3082494;46;20430;-68
2023/12/18 00:06:12;;;;;;;25.03;12.63;;;10.10;92.70;;;11.68;62.78;102913.50;3082439;46;20694;-68
2023/12/18 00:08:41;;;;;;;19.13;10.80;;;10.10;92.60;;;11.68;62.78;102913.50;3081615;46;20520;-68
2023/12/18 00:11:09;;;;;;;18.17;11.33;;;10.10;92.70;;;11.67;62.96;102910.00;3081995;46;20478;-68
2023/12/18 00:13:37;;;;;;;15.90;11.07;;;10.00;92.70;;;11.68;62.99;102909.06;3082353;46;20490;-68
2023/12/18 00:16:06;;;;;;;21.60;12.37;;;10.00;92.80;;;11.68;63.05;102903.81;3082545;46;20427;-67
2023/12/18 00:18:34;;;;;;;21.13;11.83;;;10.00;92.80;;;11.67;63.45;102910.00;3081551;46;20481;-67
2023/12/18 00:21:03;;;;;;;22.80;11.77;;;10.00;92.80;;;11.66;63.18;102910.97;3082358;46;20460;-68
2023/12/18 00:23:32;;;;;;;21.67;12.67;;;10.00;92.90;;;11.63;63.38;102894.56;3081578;46;20428;-66
2023/12/18 00:26:00;;;;;;;20.77;11.83;;;10.00;92.90;;;11.62;63.37;102898.19;3082128;46;21078;-66
2023/12/18 00:28:28;;;;;;;17.33;11.50;;;10.00;92.90;;;11.59;63.43;102896.63;3081663;46;21084;-68
2023/12/18 00:30:57;;;;;;;20.37;10.60;;;10.00;93.00;;;11.60;63.48;102886.94;3082029;46;20483;-68
2023/12/18 00:33:26;;;;;;;22.73;12.67;;;10.00;93.00;;;11.60;63.37;102887.72;3082337;46;20517;-68
2023/12/18 00:35:54;;;;;;;22.37;11.77;;;10.00;93.10;;;11.61;63.57;102889.41;3082318;46;20507;-68
2023/12/18 00:38:23;;;;;;;24.97;11.83;;;10.00;93.20;;;11.61;63.48;102888.56;3081471;46;20476;-67
2023/12/18 00:40:51;;;;;;;21.93;11.90;;;10.00;93.20;;;11.61;63.66;102883.31;3081397;46;21064;-68
2023/12/18 00:43:20;;;;;;;16.80;11.90;;;9.90;93.70;;;11.59;63.78;102880.81;3082208;46;20660;-68
2023/12/18 00:45:49;;;;;;;19.60;11.63;;;10.00;93.20;;;11.58;64.14;102871.22;3082097;46;20525;-68
2023/12/18 00:48:17;;;;;;;21.70;11.67;;;10.00;93.30;;;11.57;63.98;102869.56;3081334;46;21040;-67
2023/12/18 00:50:46;;;;;;;25.90;12.97;;;10.00;93.30;;;11.56;63.95;102867.88;3082254;46;20428;-66
2023/12/18 00:53:16;;;;;;;21.53;12.90;;;9.90;93.80;;;11.55;64.04;102861.75;3081943;46;20508;-66
2023/12/18 00:55:44;;;;;;;24.57;12.00;;;9.90;93.90;;;11.53;64.00;102853.13;3082278;46;20438;-68
2023/12/18 00:58:13;;;;;;;22.70;11.77;;;9.90;93.90;;;11.53;64.13;102857.56;3081215;46;20541;-67
2023/12/18 01:00:41;;;;;;;18.43;12.87;;;9.90;93.90;;;11.52;64.27;102856.75;3082016;46;20427;-68
2023/12/18 01:03:09;;;;;;;19.67;12.17;;;9.90;94.00;;;11.53;64.25;102852.28;3081990;46;21061;-68
2023/12/18 01:05:38;;;;;;;25.23;12.33;;;9.90;94.00;;;11.51;64.28;102848.94;3082097;46;20473;-66
2023/12/18 01:08:08;;;;;;;19.87;12.03;;;9.90;94.10;;;11.51;64.37;102848.94;3081322;46;20464;-67
2023/12/18 01:10:36;;;;;;;19.70;12.00;;;9.90;94.10;;;11.52;64.33;102845.34;3081948;46;20450;-68
2023/12/18 01:13:05;;;;;;;22.03;12.10;;;9.90;94.10;;;11.51;64.41;102847.16;3081891;46;20507;-66
2023/12/18 01:15:33;;;;;;;29.80;12.93;;;9.80;94.10;;;11.48;64.61;102839.50;3081359;46;21008;-68
2023/12/18 01:18:02;;;;;;;20.30;11.63;;;9.90;94.10;;;11.49;64.57;102840.34;3081777;46;20458;-68
2023/12/18 01:20:30;;;;;;;21.17;12.10;;;9.80;94.20;;;11.51;64.60;102838.41;3082073;46;20628;-67
2023/12/18 01:22:59;;;;;;;23.00;12.50;;;9.90;94.20;;;11.52;64.54;102845.34;3080965;46;21002;-67
2023/12/18 01:25:32;;;;;;;31.60;13.07;;;9.90;94.20;;;11.53;64.39;102847.00;3082000;46;20525;-68
2023/12/18 01:28:00;;;;;;;24.83;12.20;;;9.90;94.30;;;11.53;64.72;102852.28;3080959;46;20525;-67
2023/12/18 01:30:29;;;;;;;29.40;13.23;;;9.80;94.20;;;11.54;64.62;102848.69;3081051;46;20449;-68
2023/12/18 01:32:57;;;;;;;25.37;12.87;;;9.90;94.30;;;11.52;64.46;102840.94;3081151;46;20453;-66
2023/12/18 01:35:26;;;;;;;25.17;12.83;;;9.90;94.30;;;11.53;64.61;102855.78;3081697;46;20989;-68
2023/12/18 01:37:54;;;;;;;22.43;13.23;;;9.90;94.30;;;11.52;64.39;102861.19;3081251;46;20472;-68
2023/12/18 01:40:22;;;;;;;24.37;12.73;;;9.80;94.30;;;11.52;64.78;102858.53;3081221;46;20517;-67
2023/12/18 01:42:51;;;;;;;22.53;13.27;;;9.80;94.30;;;11.51;64.65;102859.50;3080769;46;20485;-68
2023/12/18 01:45:19;;;;;;;22.03;12.20;;;9.80;94.30;;;11.51;64.77;102854.22;3081628;46;20482;-68
2023/12/18 01:47:48;;;;;;;21.30;14.10;;;9.80;94.30;;;11.48;64.68;102850.03;3081100;46;20468;-67
2023/12/18 01:50:17;;;;;;;25.47;12.87;;;9.80;94.30;;;11.47;64.49;102856.28;3080797;46;20423;-68
2023/12/18 01:52:47;;;;;;;23.57;13.73;;;9.80;94.30;;;11.46;64.66;102857.25;3081047;46;20431;-65
2023/12/18 01:55:16;;;;;;;22.57;13.57;;;9.80;94.30;;;11.43;64.88;102862.78;3081300;46;20557;-68
2023/12/18 01:57:45;;;;;;;23.07;13.10;;;9.80;94.30;;;11.42;64.92;102863.75;3081231;46;21091;-67
2023/12/18 02:00:14;;;;;;;20.50;13.50;;;9.80;94.30;;;11.42;64.97;102861.13;3081065;46;21087;-67
2023/12/18 02:02:42;;;;;;;26.50;14.83;;;9.80;94.40;;;11.41;65.07;102869.97;3081793;46;20502;-68
2023/12/18 02:05:11;;;;;;;22.60;13.73;;;9.80;94.50;;;11.39;65.01;102860.50;3081552;46;20924;-67
2023/12/18 02:07:40;;;;;;;23.97;15.13;;;9.80;94.40;;;11.35;65.34;102856.47;3080561;46;20522;-68
2023/12/18 02:10:09;;;;;;;23.83;14.50;;;9.80;94.50;;;11.24;65.69;102856.53;3081014;46;20451;-67
2023/12/18 02:12:38;;;;;;;24.73;15.30;;;9.80;94.40;;;11.25;65.58;102850.28;3081505;46;20504;-67
2023/12/18 02:15:07;;;;;;;20.67;13.70;;;9.70;94.40;;;11.25;65.72;102848.50;3081425;46;21021;-65
2023/12/18 02:17:35;;;;;;;26.07;14.37;;;9.70;94.50;;;11.20;65.90;102845.41;3080625;46;20626;-68
2023/12/18 02:20:08;;;;;;;27.27;16.30;;;9.70;94.50;;;11.15;66.05;102837.03;3080673;46;20428;-68
2023/12/18 02:22:46;;;;;;;23.83;15.37;;;9.70;94.60;;;11.06;66.27;102829.03;3081053;46;20447;-68
2023/12/18 02:25:18;;;;;;;20.70;14.23;;;9.70;94.60;;;11.09;66.26;102852.50;3081477;46;20432;-68
2023/12/18 02:27:49;;;;;;;26.20;13.70;;;9.70;94.60;;;11.17;66.37;102839.56;3080235;44;20516;-67
2023/12/18 02:30:22;;;;;;;26.50;14.53;;;9.70;94.70;;;11.23;65.93;102836.41;3080772;46;21118;-68
2023/12/18 02:32:51;;;;;;;23.60;13.90;;;9.70;94.70;;;11.27;65.92;102840.44;3081015;46;20446;-68
2023/12/18 02:35:20;;;;;;;21.53;15.00;;;9.70;94.70;;;11.31;65.74;102833.97;3081249;46;20434;-68
2023/12/18 02:37:48;;;;;;;19.93;14.10;;;9.70;94.70;;;11.33;65.53;102829.41;3080486;46;21012;-68
2023/12/18 02:40:17;;;;;;;21.53;14.50;;;9.70;94.70;;;11.31;65.83;102833.97;3081245;46;20513;-66
2023/12/18 02:42:45;;;;;;;25.20;15.63;;;9.70;94.70;;;11.32;65.89;102828.56;3081597;46;20457;-67
2023/12/18 02:45:13;;;;;;;23.13;14.17;;;9.70;94.70;;;11.33;65.78;102824.13;3083456;46;20506;-68
2023/12/18 02:47:42;;;;;;;27.70;16.53;;;9.70;94.70;;;11.33;65.81;102824.13;3082667;46;20463;-67
2023/12/18 02:50:11;;;;;;;20.00;13.73;;;9.70;94.70;;;11.34;65.69;102815.25;3082742;46;20444;-68
2023/12/18 02:52:40;;;;;;;23.33;16.03;;;9.70;94.70;;;11.29;65.89;102809.53;3083110;46;20456;-68
2023/12/18 02:55:11;;;;;;;27.00;16.50;;;9.70;94.70;;;11.22;65.97;102803.13;3083584;46;21111;-65
2023/12/18 02:57:39;;;;;;;26.40;16.13;;;9.70;94.60;;;11.14;66.45;102814.28;3082234;46;20549;-68
2023/12/18 03:00:09;;;;;;;27.30;17.27;;;9.70;94.70;;;11.17;66.23;102815.84;3082899;46;21010;-68
2023/12/18 03:02:38;;;;;;;27.47;15.37;;;9.70;94.70;;;11.18;66.32;102820.13;3082984;46;20451;-64
2023/12/18 03:05:07;;;;;;;26.37;15.87;;;9.60;94.80;;;11.12;66.36;102815.38;3083455;46;20463;-67
2023/12/18 03:07:36;;;;;;;26.93;15.70;;;9.70;94.80;;;11.14;66.37;102823.97;3082798;46;20443;-67
2023/12/18 03:10:05;;;;;;;24.00;14.00;;;9.60;94.80;;;11.18;66.31;102818.31;3083143;46;20689;-68
2023/12/18 03:12:33;;;;;;;21.80;15.40;;;9.60;94.90;;;11.18;66.35;102820.13;3083500;46;20507;-68
2023/12/18 03:15:02;;;;;;;27.93;15.57;;;9.60;94.90;;;11.19;66.30;102816.53;3083220;46;20512;-65
2023/12/18 03:17:30;;;;;;;26.50;16.07;;;9.60;95.00;;;11.22;66.10;102816.28;3082075;43;20774;-68
2023/12/18 03:19:59;;;;;;;28.80;16.30;;;9.60;95.00;;;11.22;66.24;102813.66;3082953;46;20444;-67
2023/12/18 03:22:27;;;;;;;25.63;14.40;;;9.60;95.00;;;11.18;66.22;102805.16;3082792;46;20430;-68
2023/12/18 03:24:56;;;;;;;27.97;16.50;;;9.60;95.00;;;11.19;66.57;102806.00;3082961;46;20426;-67
2023/12/18 03:27:24;;;;;;;25.53;16.50;;;9.60;95.00;;;11.21;66.34;102809.34;3082431;46;20939;-68
2023/12/18 03:29:52;;;;;;;25.03;16.67;;;9.60;95.10;;;11.20;66.63;102802.38;3083049;46;20507;-67
2023/12/18 03:32:21;;;;;;;23.17;15.70;;;9.60;95.10;;;11.09;66.83;102803.28;3082577;46;21125;-68
2023/12/18 03:34:49;;;;;;;21.40;14.37;;;9.60;95.10;;;11.12;66.77;102810.94;3082909;46;20426;-68
2023/12/18 03:37:17;;;;;;;24.90;16.30;;;9.60;95.10;;;11.16;66.41;102812.34;3082524;46;20636;-66
2023/12/18 03:39:46;;;;;;;26.03;15.20;;;9.60;95.20;;;11.12;66.92;102810.09;3082829;46;20464;-68
2023/12/18 03:42:14;;;;;;;30.77;19.00;;;9.60;95.30;;;11.12;67.08;102815.38;3082051;46;20431;-67
2023/12/18 03:44:43;;;;;;;28.17;17.77;;;9.60;95.20;;;11.09;67.03;102805.06;3082842;46;20431;-67
2023/12/18 03:47:12;;;;;;;27.13;16.93;;;9.60;95.30;;;11.06;67.03;102813.22;3082131;43;20475;-68
2023/12/18 03:49:40;;;;;;;22.83;15.70;;;9.60;95.30;;;11.07;67.12;102812.28;3082675;46;20494;-66
2023/12/18 03:52:09;;;;;;;24.77;16.60;;;9.60;95.30;;;11.04;67.23;102802.81;3082457;46;21002;-66
2023/12/18 03:54:37;;;;;;;25.33;16.80;;;9.50;95.30;;;11.07;67.18;102807.00;3082618;46;20475;-68
2023/12/18 03:57:05;;;;;;;29.13;17.33;;;9.50;95.30;;;11.07;66.97;102807.00;3082426;46;20442;-67
2023/12/18 03:59:34;;;;;;;23.37;16.67;;;9.50;95.40;;;11.08;67.16;102812.13;3082782;46;20427;-68
2023/12/18 04:02:02;;;;;;;29.60;16.40;;;9.50;95.50;;;11.13;67.11;102806.47;3082510;46;20568;-66
2023/12/18 04:04:31;;;;;;;27.70;17.50;;;9.50;95.50;;;11.14;67.03;102801.09;3082483;46;20475;-67
2023/12/18 04:06:59;;;;;;;35.87;18.43;;;9.50;95.60;;;11.10;67.29;102806.75;3082151;46;20443;-66
2023/12/18 04:09:28;;;;;;;28.10;17.07;;;9.50;95.60;;;11.03;67.75;102810.88;3082604;46;21135;-68
2023/12/18 04:11:56;;;;;;;30.53;16.70;;;9.50;95.70;;;11.04;67.56;102807.25;3082424;46;20981;-67
2023/12/18 04:14:24;;;;;;;27.80;17.57;;;9.50;95.70;;;11.04;67.72;102812.53;3082545;46;20456;-67
2023/12/18 04:16:53;;;;;;;37.00;18.43;;;9.50;95.80;;;11.03;67.74;102798.50;3081990;46;20509;-68
2023/12/18 04:19:21;;;;;;;23.70;18.10;;;9.40;95.80;;;11.03;67.75;102806.41;3082263;46;20456;-67
2023/12/18 04:21:50;;;;;;;26.07;17.40;;;9.40;95.80;;;10.99;68.10;102794.47;3082311;46;20545;-68
2023/12/18 04:24:19;;;;;;;29.00;17.37;;;9.40;95.90;;;10.98;67.94;102791.97;3082440;46;20503;-68
2023/12/18 04:26:47;;;;;;;25.20;17.00;;;9.40;95.90;;;10.98;68.18;102786.69;3081793;46;20444;-68
2023/12/18 04:29:17;;;;;;;28.73;18.33;;;9.40;95.90;;;10.95;68.28;102787.78;3082395;46;20438;-67
2023/12/18 04:31:45;;;;;;;34.53;18.60;;;9.40;96.00;;;10.91;68.48;102790.78;3082051;46;20432;-66
2023/12/18 04:34:14;;;;;;;27.53;18.47;;;9.40;96.00;;;10.85;68.61;102782.44;3082422;46;20428;-66
2023/12/18 04:36:43;;;;;;;33.87;19.50;;;9.40;96.10;;;10.79;69.03;102777.66;3082078;46;20474;-66
2023/12/18 04:39:12;;;;;;;28.73;18.77;;;9.40;96.10;;;10.71;69.42;102774.81;3082055;46;21060;-68
2023/12/18 04:41:40;;;;;;;28.37;17.97;;;9.30;96.20;;;10.74;68.53;102781.63;3081493;46;20452;-66
2023/12/18 04:44:08;;;;;;;32.43;18.80;;;9.30;96.20;;;10.73;69.43;102774.69;3081576;46;20474;-67
2023/12/18 04:46:38;;;;;;;32.20;18.90;;;9.30;96.40;;;10.73;69.04;102772.06;3081586;46;20623;-66
2023/12/18 04:49:06;;;;;;;30.33;18.67;;;9.20;96.30;;;10.71;69.18;102769.56;3081418;46;20932;-68
2023/12/18 04:51:35;;;;;;;30.27;18.70;;;9.20;96.40;;;10.71;69.17;102766.06;3082023;46;20606;-66
2023/12/18 04:54:04;;;;;;;31.40;20.10;;;9.20;96.40;;;10.69;69.50;102782.00;3081892;46;20448;-68
2023/12/18 04:56:32;;;;;;;29.37;19.20;;;9.20;96.50;;;10.70;69.39;102769.66;3081816;46;20429;-65
2023/12/18 04:59:01;;;;;;;28.50;18.90;;;9.20;96.60;;;10.74;69.50;102765.84;3082154;46;20431;-68
2023/12/18 05:01:29;;;;;;;30.80;19.53;;;9.20;96.60;;;10.73;69.27;102767.63;3081899;46;20560;-68
2023/12/18 05:03:57;;;;;;;32.63;19.70;;;9.10;96.70;;;10.74;69.13;102764.00;3081430;46;21013;-66
2023/12/18 05:06:29;;;;;;;30.03;19.67;;;9.20;96.70;;;10.78;69.17;102770.72;3081259;46;20454;-64
2023/12/18 05:08:57;;;;;;;34.70;20.50;;;9.20;96.80;;;10.80;69.21;102779.34;3081755;46;20444;-67
2023/12/18 05:11:26;;;;;;;32.57;19.67;;;9.20;96.80;;;10.81;69.11;102778.38;3081907;46;20438;-68
2023/12/18 05:13:54;;;;;;;27.70;18.83;;;9.20;96.80;;;10.79;69.38;102788.19;3081682;46;21113;-67
2023/12/18 05:16:23;;;;;;;29.40;20.63;;;9.20;96.80;;;10.80;69.45;102784.59;3081867;46;20993;-68
2023/12/18 05:18:53;;;;;;;35.03;19.23;;;9.20;96.80;;;10.80;69.43;102784.59;3081931;46;20546;-67
2023/12/18 05:21:21;;;;;;;31.97;19.70;;;9.20;96.90;;;10.76;69.77;102784.97;3082021;46;20435;-68
2023/12/18 05:23:51;;;;;;;31.87;18.87;;;9.20;96.90;;;10.76;69.83;102788.47;3081779;46;21137;-68
2023/12/18 05:26:19;;;;;;;34.13;19.77;;;9.20;96.90;;;10.76;69.87;102788.47;3081732;46;21056;-67
2023/12/18 05:28:48;;;;;;;32.27;21.23;;;9.20;96.90;;;10.71;70.19;102774.81;3081211;46;20554;-66
2023/12/18 05:31:18;;;;;;;37.87;21.57;;;9.20;97.00;;;10.72;69.98;102781.75;3081503;46;20432;-66
2023/12/18 05:33:47;;;;;;;30.67;20.30;;;9.20;96.90;;;10.73;70.13;102778.16;3081528;46;20493;-68
2023/12/18 05:36:15;;;;;;;30.07;20.03;;;9.20;96.90;;;10.72;70.18;102773.03;3081137;46;20447;-65
2023/12/18 05:38:44;;;;;;;34.23;22.07;;;9.20;96.90;;;10.74;70.02;102760.56;3081105;46;20564;-68
2023/12/18 05:41:12;;;;;;;31.63;20.47;;;9.20;96.90;;;10.71;70.32;102769.56;3080436;46;21370;-68
2023/12/18 05:43:40;;;;;;;34.40;20.67;;;9.20;96.90;;;10.72;70.11;102771.22;3081316;46;20474;-68
2023/12/18 05:46:13;;;;;;;27.23;19.73;;;9.20;96.90;;;10.77;70.04;102786.63;3081320;43;20449;-67
2023/12/18 05:48:42;;;;;;;32.63;19.87;;;9.20;97.00;;;10.81;69.94;102781.03;3080485;46;20436;-67
2023/12/18 05:51:21;;;;;;;38.53;20.33;;;9.20;97.00;;;10.79;69.87;102788.19;3081119;46;20434;-68
2023/12/18 05:53:50;;;;;;;39.23;21.40;;;9.20;97.00;;;10.79;69.93;102793.44;3081325;46;20432;-68
2023/12/18 05:56:18;;;;;;;32.97;21.00;;;9.20;97.00;;;10.82;69.85;102805.53;3081566;46;20552;-67
2023/12/18 05:58:47;;;;;;;36.63;20.13;;;9.20;97.00;;;10.80;69.96;102800.41;3080736;46;20440;-67
2023/12/18 06:01:15;;;;;;;33.40;20.73;;;9.20;97.00;;;10.87;69.88;102804.22;3081485;46;21206;-68
2023/12/18 06:03:43;;;;;;;34.17;20.90;;;9.20;97.40;;;10.94;69.89;102801.06;3081297;46;20493;-68
2023/12/18 06:06:12;;;;;;;32.90;20.77;;;9.30;97.20;;;11.00;69.85;102795.31;3081338;46;20926;-65
2023/12/18 06:08:40;;;;;;;32.83;19.93;;;9.30;97.20;;;11.03;69.60;102797.69;3080792;46;20580;-65
2023/12/18 06:11:09;;;;;;;31.10;22.20;;;9.30;97.10;;;11.04;69.52;102791.44;3080952;46;20929;-65
2023/12/18 06:13:39;;;;;;;35.53;21.83;;;9.30;97.10;;;11.00;69.31;102782.13;3081245;46;20992;-66
2023/12/18 06:16:07;;;;;;;38.20;21.00;;;9.30;96.90;;;10.98;69.30;102787.53;3080901;46;20483;-65
2023/12/18 06:18:35;;;;;;;35.07;22.03;;;9.30;96.90;;;10.97;69.52;102800.81;3080662;46;20439;-68
2023/12/18 06:21:06;;;;;;;30.17;21.03;;;9.40;96.90;;;10.97;69.53;102795.53;3080927;46;20537;-67
2023/12/18 06:23:34;;;;;;;29.17;19.40;;;9.30;96.90;;;10.98;69.32;102799.88;3081021;46;20439;-67
2023/12/18 06:26:04;;;;;;;33.40;21.70;;;9.40;96.90;;;10.97;69.46;102796.38;3080731;46;20448;-67
2023/12/18 06:28:33;;;;;;;36.37;22.60;;;9.30;96.90;;;10.97;69.38;102798.19;3080251;46;20467;-67
2023/12/18 06:31:01;;;;;;;35.00;19.90;;;9.30;96.80;;;10.97;69.57;102796.38;3080977;46;20999;-67
2023/12/18 06:33:30;;;;;;;36.33;20.87;;;9.30;96.80;;;10.98;69.39;102802.50;3080853;46;20595;-68
2023/12/18 06:35:58;;;;;;;32.60;20.07;;;9.30;96.80;;;10.98;69.36;102791.97;3080847;46;20440;-67
2023/12/18 06:38:27;;;;;;;34.13;20.37;;;9.30;96.90;;;10.99;69.31;102796.25;3080486;46;21126;-66
2023/12/18 06:40:56;;;;;;;33.70;21.60;;;9.30;96.80;;;10.96;69.34;102793.88;3080069;46;20455;-68
2023/12/18 06:43:25;;;;;;;33.43;19.83;;;9.30;96.80;;;10.97;69.46;102795.53;3080975;46;20552;-64
2023/12/18 06:45:53;;;;;;;32.60;20.27;;;9.30;96.80;;;10.96;69.52;102799.16;3080515;43;20600;-67
2023/12/18 06:48:21;;;;;;;31.10;20.73;;;9.40;96.80;;;10.98;69.46;102808.63;3080132;46;20608;-68
2023/12/18 06:50:50;;;;;;;31.27;20.50;;;9.30;96.80;;;10.98;69.44;102789.31;3080356;46;20443;-68
2023/12/18 06:53:19;;;;;;;28.83;20.00;;;9.40;96.80;;;11.00;69.32;102804.06;3080604;46;20597;-68
2023/12/18 06:55:47;;;;;;;37.33;22.07;;;9.40;96.80;;;11.03;69.41;102805.59;3080596;46;20545;-67
2023/12/18 06:58:15;;;;;;;33.80;21.37;;;9.40;96.90;;;11.06;69.21;102815.88;3080132;46;20464;-68
2023/12/18 07:00:44;;;;;;;33.23;19.73;;;9.40;96.90;;;11.07;69.27;102817.53;3080490;46;20489;-67
2023/12/18 07:03:12;;;;;;;32.20;20.70;;;9.40;96.90;;;11.07;69.25;102817.53;3080368;46;21028;-67
2023/12/18 07:05:42;;;;;;;33.70;20.37;;;9.40;96.90;;;11.03;69.62;102816.13;3080251;43;21304;-68
2023/12/18 07:08:10;;;;;;;29.87;20.37;;;9.40;96.80;;;10.95;69.67;102803.59;3079780;46;20459;-68
2023/12/18 07:10:39;;;;;;;30.00;20.07;;;9.40;96.80;;;10.94;69.72;102806.31;3080167;46;21190;-68
2023/12/18 07:13:08;;;;;;;40.17;19.57;;;9.50;96.70;;;10.96;69.69;102812.34;3080376;46;20432;-67
2023/12/18 07:15:36;;;;;;;35.77;21.53;;;9.40;96.70;;;10.95;69.79;102813.28;3080230;46;21027;-66
2023/12/18 07:18:07;;;;;;;33.27;20.67;;;9.40;96.70;;;10.99;69.69;102805.00;3079773;46;20561;-67
2023/12/18 07:20:36;;;;;;;32.93;20.37;;;9.40;96.80;;;11.01;69.54;102799.59;3080216;46;20594;-68
2023/12/18 07:23:04;;;;;;;27.57;18.70;;;9.40;96.80;;;11.04;69.44;102796.72;3080328;46;20468;-66
2023/12/18 07:25:33;;;;;;;32.43;19.40;;;9.40;96.80;;;11.08;69.40;102803.41;3080441;46;20456;-67
2023/12/18 07:28:01;;;;;;;27.90;19.77;;;9.40;96.80;;;11.10;69.45;102812.84;3080774;46;21115;-68
2023/12/18 07:30:29;;;;;;;32.73;19.40;;;9.40;96.80;;;11.12;69.20;102810.09;3082797;46;20996;-68
2023/12/18 07:32:58;;;;;;;30.93;18.73;;;9.40;96.80;;;11.16;69.33;102803.59;3082523;46;20504;-68
2023/12/18 07:35:26;;;;;;;27.27;18.23;;;9.50;96.90;;;11.20;69.17;102821.66;3083032;46;20451;-68
2023/12/18 07:37:55;;;;;;;27.63;18.87;;;9.50;96.90;;;11.24;69.08;102803.81;3081992;46;20581;-65
2023/12/18 07:40:23;;;;;;;27.83;17.37;;;9.50;96.90;;;11.27;68.90;102808.81;3083084;46;21032;-68
2023/12/18 07:42:51;;;;;;;30.03;19.30;;;9.50;96.80;;;11.29;68.87;102793.72;3081520;46;20497;-67
2023/12/18 07:45:20;;;;;;;36.20;20.97;;;9.60;96.80;;;11.26;68.63;102792.19;3082509;46;20487;-68
2023/12/18 07:47:48;;;;;;;28.27;19.10;;;9.60;96.60;;;11.24;68.63;102790.63;3082143;46;20439;-67
2023/12/18 07:50:17;;;;;;;27.67;18.83;;;9.60;96.50;;;11.19;68.55;102790.19;3082584;46;20456;-68
2023/12/18 07:52:45;;;;;;;25.43;18.63;;;9.60;96.40;;;11.19;68.74;102784.91;3081873;46;20554;-66
2023/12/18 07:55:13;;;;;;;32.00;19.47;;;9.60;96.40;;;11.20;68.83;102797.09;3082251;46;20552;-68
2023/12/18 07:57:42;;;;;;;29.93;18.53;;;9.60;96.40;;;11.19;68.67;102798.94;3081891;46;20439;-68
2023/12/18 08:00:11;;;;;;;31.90;19.53;;;9.60;96.30;;;11.20;68.39;102805.84;3082452;46;20535;-68
2023/12/18 08:02:40;;;;;;;28.23;18.37;;;9.60;96.30;;;11.15;68.66;102794.84;3082587;46;20448;-68
2023/12/18 08:05:09;;;;;;;38.40;19.77;;;9.60;96.30;;;11.18;68.84;102801.66;3081745;43;21142;-67
2023/12/18 08:07:37;;;;;;;33.67;19.93;;;9.60;96.30;;;11.20;68.72;102797.09;3080936;46;20440;-68
2023/12/18 08:10:07;;;;;;;23.97;16.93;;;9.60;96.30;;;11.22;68.68;102789.94;3081986;46;20428;-67
2023/12/18 08:12:35;;;;;;;35.47;18.73;;;9.60;96.30;;;11.27;68.67;102793.00;3081411;46;20453;-66
2023/12/18 08:15:04;;;;;;;46.13;21.83;;;9.70;96.40;;;11.27;68.57;102798.25;3080786;46;20423;-68
2023/12/18 08:17:39;;;;;;;35.17;19.73;;;9.60;96.30;;;11.20;68.36;102797.94;3080885;46;20439;-68
2023/12/18 08:20:09;;;;;;;30.00;19.47;;;9.70;96.20;;;11.23;68.52;102797.69;3082077;46;20520;-68
2023/12/18 08:22:37;;;;;;;39.03;19.67;;;9.70;96.20;;;11.26;68.32;102801.88;3081327;46;20564;-68
2023/12/18 08:25:07;;;;;;;37.07;18.67;;;9.70;96.20;;;11.30;68.28;102803.28;3082152;46;20448;-68
2023/12/18 08:27:41;;;;;;;32.97;19.33;;;9.70;96.20;;;11.32;68.17;102806.63;3081556;43;20446;-67
2023/12/18 08:30:15;;;;;;;31.10;18.53;;;9.70;96.20;;;11.33;68.13;102793.34;3081306;46;20970;-65
2023/12/18 08:32:46;;;;;;;34.30;21.50;;;9.70;96.20;;;11.35;67.98;102801.09;3081283;46;20525;-67
2023/12/18 08:35:15;;;;;;;30.77;18.67;;;9.70;96.20;;;11.38;68.03;102806.13;3081746;46;21409;-66
2023/12/18 08:37:43;;;;;;;29.53;18.70;;;9.70;96.20;;;11.34;67.84;102795.00;3081367;46;20528;-68
2023/12/18 08:40:12;;;;;;;34.20;20.27;;;9.70;96.00;;;11.33;67.97;102793.34;3081346;46;20464;-67
2023/12/18 08:42:40;;;;;;;29.50;19.43;;;9.80;96.10;;;11.33;68.00;102795.13;3081493;46;20428;-67
2023/12/18 08:45:09;;;;;;;34.70;19.07;;;9.80;96.10;;;11.35;68.06;102798.47;3081863;46;20459;-68
2023/12/18 08:47:37;;;;;;;31.60;18.63;;;9.80;96.00;;;11.35;68.00;102795.84;3080547;46;20529;-68
2023/12/18 08:50:07;;;;;;;30.43;21.63;;;9.70;96.00;;;11.34;67.91;102792.34;3081781;46;21076;-68
2023/12/18 08:52:36;;;;;;;31.13;19.33;;;9.80;96.00;;;11.42;67.99;102797.84;3081618;46;20581;-66
2023/12/18 08:55:05;;;;;;;36.60;20.33;;;9.80;96.10;;;11.47;67.63;102794.81;3075538;46;20440;-66
2023/12/18 08:57:33;;;;;;;30.70;19.53;;;9.80;96.00;;;11.51;67.83;102801.47;3075928;46;21129;-67
2023/12/18 09:00:04;;;;;;;31.23;19.17;;;9.80;96.10;;;11.56;67.78;102794.03;3077123;46;20528;-67
2023/12/18 09:02:32;;;;;;;29.43;18.40;;;9.80;96.10;;;11.56;67.43;102788.75;3077334;46;21124;-67
2023/12/18 09:05:01;;;;;;;32.03;20.33;;;9.80;95.90;;;11.52;67.56;102789.97;3078306;46;20443;-68
2023/12/18 09:07:29;;;;;;;28.87;17.60;;;9.90;95.80;;;11.55;67.53;102784.47;3077806;46;20456;-69
2023/12/18 09:09:57;;;;;;;40.40;21.37;;;9.90;95.90;;;11.61;67.56;102785.72;3078276;46;20516;-75
2023/12/18 09:12:26;;;;;;;31.57;20.70;;;9.90;95.90;;;11.66;67.47;102800.19;3078156;43;20445;-68
2023/12/18 09:14:54;;;;;;;36.27;20.27;;;9.90;95.90;;;11.61;67.16;102797.09;3078548;46;20439;-72
2023/12/18 09:17:23;;;;;;;36.97;20.43;;;10.00;95.30;;;11.63;67.40;102795.16;3078246;46;20546;-73
2023/12/18 09:19:51;;;;;;;31.13;20.20;;;10.00;95.30;;;11.65;67.36;102809.06;3077858;46;20550;-71
2023/12/18 09:22:20;;;;;;;31.40;19.83;;;10.00;95.30;;;11.67;67.33;102799.22;3077971;46;20415;-68
2023/12/18 09:24:48;;;;;;;37.23;20.33;;;10.00;95.30;;;11.67;67.37;102796.56;3077726;46;20484;-69
2023/12/18 09:27:16;;;;;;;35.97;20.67;;;10.00;95.30;;;11.67;66.95;102799.22;3077300;46;21228;-70
2023/12/18 09:29:45;;;;;;;40.33;21.70;;;10.00;95.20;;;11.69;67.13;102799.97;3068852;46;20492;-69
2023/12/18 09:32:14;;;;;;;34.10;21.27;;;10.00;95.20;;;11.71;67.18;102798.03;3073264;46;20423;-69
2023/12/18 09:34:42;;;;;;;32.80;21.13;;;10.00;95.30;;;11.70;66.94;102790.22;3077359;46;20423;-68
2023/12/18 09:37:11;;;;;;;36.43;20.53;;;10.00;95.20;;;11.72;67.03;102797.06;3078115;46;20531;-71
2023/12/18 09:39:43;;;;;;;32.97;19.67;;;10.00;95.20;;;11.72;66.99;102789.13;3063414;46;20556;-70
2023/12/18 09:42:12;;;;;;;37.87;22.23;;;10.00;95.20;;;11.73;66.90;102785.53;3077894;46;20477;-70
2023/12/18 09:44:47;;;;;;;41.60;22.70;;;10.00;95.20;;;11.71;66.93;102782.22;3064467;46;22056;-69
2023/12/18 09:47:17;;;;;;;39.07;20.27;;;10.00;95.20;;;11.71;67.06;102781.38;3078202;46;20467;-69
2023/12/18 09:49:45;;;;;;;39.60;21.40;;;10.00;95.20;;;11.67;66.96;102786.03;3078040;46;20588;-70
2023/12/18 09:52:16;;;;;;;31.63;20.10;;;10.00;95.10;;;11.64;67.05;102775.75;3064793;46;20500;-71
2023/12/18 09:54:46;;;;;;;37.53;19.73;;;10.00;95.10;;;11.70;67.03;102777.88;3074948;46;20481;-69
2023/12/18 09:57:18;;;;;;;37.63;21.27;;;10.10;95.20;;;11.68;67.01;102786.91;3075717;46;20589;-70
2023/12/18 09:59:48;;;;;;;35.90;20.63;;;10.10;95.20;;;11.67;67.04;102780.75;3067447;46;20461;-71
2023/12/18 10:02:18;;;;;;;31.63;19.33;;;10.10;95.20;;;11.66;67.19;102781.72;3072830;46;20447;-71
2023/12/18 10:04:47;;;;;;;38.37;21.50;;;10.10;95.20;;;11.67;67.09;102786.03;3075797;46;20454;-70
2023/12/18 10:07:17;;;;;;;36.03;21.20;;;10.10;95.20;;;11.67;67.18;102780.75;3076631;46;20468;-70
2023/12/18 10:09:49;;;;;;;34.37;19.77;;;10.10;95.20;;;11.70;67.06;102785.81;3064159;46;21069;-68
2023/12/18 10:12:18;;;;;;;33.30;20.50;;;10.00;95.20;;;11.73;67.23;102772.34;3077597;46;20529;-70